Time;durP1;ratioP1;P1;durP2;ratioP2;P2;SDS_P1;SDS_P2;PMS_P1;PMS_P2;Temp;Humidity;BMP_temperature;BMP_pressure;BME280_temperature;BME280_humidity;BME280_pressure;Samples;Min_cycle;Max_cycle;Signal;HPM_P1;HPM_P2
2022/03/01 00:00:19;;;;;;;21.00;16.50;;;;;;;2.11;62.76;102784.38;4893610;29;20040;-80
2022/03/01 00:02:45;;;;;;;22.75;16.67;;;;;;;2.08;62.53;102786.16;4909857;29;20063;-80
2022/03/01 00:05:11;;;;;;;23.35;17.27;;;;;;;2.08;62.56;102787.00;4894195;29;20048;-80
2022/03/01 00:07:36;;;;;;;23.13;17.45;;;;;;;2.05;63.11;102775.94;4901788;29;20404;-81
2022/03/01 00:10:03;;;;;;;21.52;16.52;;;;;;;2.01;62.84;102775.16;4911913;29;20039;-80
2022/03/01 00:12:28;;;;;;;21.45;17.20;;;;;;;1.95;63.34;102775.25;4899461;29;20048;-80
2022/03/01 00:14:53;;;;;;;23.92;17.23;;;;;;;1.97;63.24;102778.63;4876924;29;20433;-80
2022/03/01 00:17:19;;;;;;;22.17;16.88;;;;;;;2.02;62.91;102786.25;4893236;29;20066;-80
2022/03/01 00:19:44;;;;;;;24.13;18.30;;;;;;;1.95;63.37;102780.38;4893023;29;20028;-80
2022/03/01 00:22:09;;;;;;;23.58;18.23;;;;;;;1.91;63.40;102773.59;4875980;29;20044;-80
2022/03/01 00:24:35;;;;;;;25.05;18.85;;;;;;;1.96;63.27;102782.06;4903305;29;20511;-80
2022/03/01 00:27:00;;;;;;;25.45;18.38;;;;;;;1.90;63.74;102777.03;4912688;29;20033;-80
2022/03/01 00:29:26;;;;;;;23.60;17.77;;;;;;;1.85;63.32;102768.56;4915580;29;20028;-80
2022/03/01 00:31:51;;;;;;;21.70;16.95;;;;;;;1.92;63.85;102774.44;4907547;29;20036;-80
2022/03/01 00:34:16;;;;;;;24.02;16.52;;;;;;;1.78;63.73;102762.69;4931708;29;20063;-80
2022/03/01 00:36:42;;;;;;;21.38;16.67;;;;;;;1.88;63.89;102767.66;4926017;29;20457;-80
2022/03/01 00:39:07;;;;;;;19.92;16.42;;;;;;;1.81;63.59;102754.13;4896317;29;20040;-80
2022/03/01 00:41:33;;;;;;;24.20;17.25;;;;;;;1.76;63.67;102753.31;4897574;29;20112;-80
2022/03/01 00:43:59;;;;;;;24.65;17.08;;;;;;;1.70;63.90;102748.31;4915045;29;20038;-80
2022/03/01 00:46:26;;;;;;;20.65;16.95;;;;;;;1.70;63.90;102754.25;4882169;29;20481;-80
2022/03/01 00:48:53;;;;;;;21.92;17.05;;;;;;;1.63;63.96;102751.81;4896967;29;20168;-80
2022/03/01 00:51:18;;;;;;;20.17;16.75;;;;;;;1.64;64.10;102766.28;4895766;29;20060;-80
2022/03/01 00:53:43;;;;;;;24.30;17.02;;;;;;;1.60;64.21;102763.75;4878349;29;20132;-80
2022/03/01 00:56:09;;;;;;;21.17;17.80;;;;;;;1.64;64.37;102773.97;4896829;29;20063;-81
2022/03/01 00:58:34;;;;;;;20.95;16.52;;;;;;;1.62;64.07;102766.31;4911587;29;20032;-80
2022/03/01 01:01:00;;;;;;;23.15;17.10;;;;;;;1.62;64.36;102766.31;4914954;29;20036;-80
2022/03/01 01:03:25;;;;;;;21.95;16.67;;;;;;;1.62;64.44;102770.59;4911489;29;20106;-80
2022/03/01 01:05:50;;;;;;;24.70;17.60;;;;;;;1.63;64.87;102777.38;4908013;29;20032;-81
2022/03/01 01:08:16;;;;;;;22.75;16.85;;;;;;;1.64;64.22;102773.97;4907105;29;20032;-80
2022/03/01 01:10:41;;;;;;;21.92;17.42;;;;;;;1.63;64.60;102772.28;4902803;29;20059;-80
2022/03/01 01:13:07;;;;;;;23.95;17.30;;;;;;;1.60;64.69;102768.03;4905896;29;20107;-79
2022/03/01 01:15:32;;;;;;;24.33;17.63;;;;;;;1.66;65.10;102764.53;4896025;29;20477;-80
2022/03/01 01:17:58;;;;;;;21.25;17.65;;;;;;;1.64;64.99;102766.28;4896090;29;20530;-81
2022/03/01 01:20:23;;;;;;;23.38;16.85;;;;;;;1.66;64.96;102772.22;4913301;29;20103;-80
2022/03/01 01:22:49;;;;;;;21.75;17.02;;;;;;;1.65;64.49;102770.53;4914949;29;20044;-81
2022/03/01 01:25:18;;;;;;;21.02;17.02;;;;;;;1.65;64.57;102770.53;4915316;29;20052;-80
2022/03/01 01:27:46;;;;;;;22.30;16.95;;;;;;;1.65;64.98;102770.53;4915005;29;20107;-83
2022/03/01 01:30:14;;;;;;;22.52;17.02;;;;;;;1.65;65.11;102770.53;4913844;29;20499;-80
2022/03/01 01:32:42;;;;;;;23.13;18.15;;;;;;;1.66;65.24;102777.34;4914647;29;20084;-80
2022/03/01 01:35:10;;;;;;;23.05;17.25;;;;;;;1.64;64.95;102763.72;4914281;29;20792;-80
2022/03/01 01:37:35;;;;;;;24.20;17.83;;;;;;;1.66;64.53;102773.06;4897782;29;20039;-80
2022/03/01 01:40:02;;;;;;;24.08;17.50;;;;;;;1.64;65.08;102768.84;4883797;29;20036;-80
2022/03/01 01:42:27;;;;;;;23.27;17.48;;;;;;;1.67;65.00;102769.66;4897178;29;20064;-79
2022/03/01 01:44:53;;;;;;;20.77;16.65;;;;;;;1.59;64.97;102756.94;4897060;29;20485;-80
2022/03/01 01:47:20;;;;;;;21.92;17.17;;;;;;;1.59;64.82;102763.78;4895429;29;20520;-80
2022/03/01 01:49:45;;;;;;;22.20;16.67;;;;;;;1.60;64.71;102758.63;4895734;29;20529;-80
2022/03/01 01:52:11;;;;;;;23.92;17.15;;;;;;;1.59;64.83;102756.94;4909972;29;20814;-80
2022/03/01 01:54:36;;;;;;;21.02;16.77;;;;;;;1.62;64.59;102761.19;4878289;29;20028;-83
2022/03/01 01:57:13;;;;;;;22.75;17.83;;;;;;;1.58;64.82;102751.88;4879128;29;20032;-80
2022/03/01 01:59:38;;;;;;;22.05;17.98;;;;;;;1.59;65.03;102767.19;4895515;29;20430;-80
2022/03/01 02:02:04;;;;;;;22.73;17.88;;;;;;;1.49;65.02;102750.28;4897886;29;20040;-80
2022/03/01 02:04:29;;;;;;;22.55;17.95;;;;;;;1.53;64.92;102762.16;4911801;29;20032;-80
2022/03/01 02:06:55;;;;;;;23.52;17.50;;;;;;;1.48;64.86;102753.69;4900497;29;20100;-80
2022/03/01 02:09:20;;;;;;;22.92;17.10;;;;;;;1.47;64.83;102748.59;4912196;29;20111;-81
2022/03/01 02:11:46;;;;;;;22.73;17.75;;;;;;;1.52;64.94;102765.56;4909351;29;20028;-81
2022/03/01 02:14:12;;;;;;;22.75;17.80;;;;;;;1.50;64.88;102767.31;4895737;29;20059;-80
2022/03/01 02:16:39;;;;;;;24.85;18.63;;;;;;;1.51;65.34;102763.91;4901771;29;20536;-80
2022/03/01 02:19:05;;;;;;;24.98;17.90;;;;;;;1.49;65.64;102755.41;4896413;29;20032;-80
2022/03/01 02:21:31;;;;;;;21.63;17.05;;;;;;;1.52;65.42;102765.56;4913943;29;20075;-80
2022/03/01 02:23:56;;;;;;;20.95;16.92;;;;;;;1.52;65.29;102763.03;4913944;29;20087;-80
2022/03/01 02:26:22;;;;;;;23.73;17.90;;;;;;;1.39;65.72;102738.47;4897018;29;20122;-80
2022/03/01 02:28:47;;;;;;;21.65;17.02;;;;;;;1.45;65.55;102758.84;4914126;29;20491;-82
2022/03/01 02:31:12;;;;;;;21.73;16.95;;;;;;;1.46;65.37;102760.53;4897178;29;20025;-80
2022/03/01 02:33:38;;;;;;;23.38;18.23;;;;;;;1.50;65.71;102757.09;4919941;29;20043;-80
2022/03/01 02:36:04;;;;;;;22.95;17.75;;;;;;;1.47;65.53;102761.38;4919025;29;20038;-80
2022/03/01 02:38:29;;;;;;;22.73;17.83;;;;;;;1.39;65.66;102738.47;4913529;29;20032;-80
2022/03/01 02:40:54;;;;;;;23.48;17.70;;;;;;;1.41;65.68;102746.97;4912276;29;20140;-80
2022/03/01 02:43:20;;;;;;;22.98;17.80;;;;;;;1.48;65.39;102752.84;4908702;29;20036;-80
2022/03/01 02:45:45;;;;;;;23.88;17.98;;;;;;;1.45;65.68;102751.19;4911274;29;20036;-80
2022/03/01 02:48:10;;;;;;;23.92;18.60;;;;;;;1.48;65.44;102753.69;4912979;29;20043;-80
2022/03/01 02:50:36;;;;;;;22.88;18.05;;;;;;;1.40;65.23;102740.16;4913138;29;20464;-81
2022/03/01 02:53:01;;;;;;;24.17;18.10;;;;;;;1.44;65.31;102746.09;4913319;29;20115;-80
2022/03/01 02:55:26;;;;;;;23.55;17.92;;;;;;;1.37;65.15;102735.09;4907607;29;20028;-81
2022/03/01 02:57:52;;;;;;;23.05;17.17;;;;;;;1.32;65.25;102726.66;4893787;29;20048;-80
2022/03/01 03:00:17;;;;;;;22.35;17.42;;;;;;;1.36;65.12;102735.09;4893234;29;20033;-83
2022/03/01 03:02:43;;;;;;;21.73;17.27;;;;;;;1.34;65.29;102730.03;4901071;29;20457;-81
2022/03/01 03:05:09;;;;;;;24.70;18.25;;;;;;;1.37;66.03;102740.19;4913008;29;20043;-80
2022/03/01 03:07:35;;;;;;;23.90;18.48;;;;;;;1.36;65.46;102746.19;4912509;29;20039;-80
2022/03/01 03:10:02;;;;;;;23.73;18.05;;;;;;;1.36;66.05;102738.50;4898632;29;20143;-80
2022/03/01 03:12:28;;;;;;;23.33;18.55;;;;;;;1.28;66.36;102735.22;4894154;29;20024;-79
2022/03/01 03:14:53;;;;;;;23.33;18.10;;;;;;;1.32;66.33;102734.31;4895628;29;20443;-80
2022/03/01 03:17:19;;;;;;;24.63;19.42;;;;;;;1.28;66.21;102732.66;4910617;29;20085;-80
2022/03/01 03:19:44;;;;;;;24.35;18.80;;;;;;;1.30;66.02;102736.03;4897538;29;20029;-80
2022/03/01 03:22:09;;;;;;;23.63;18.73;;;;;;;1.25;66.28;102735.22;4908611;29;20103;-80
2022/03/01 03:24:35;;;;;;;25.05;18.88;;;;;;;1.20;66.47;102724.22;4912484;29;20047;-80
2022/03/01 03:27:00;;;;;;;23.33;18.33;;;;;;;1.27;66.18;102733.53;4912478;29;20040;-80
2022/03/01 03:29:25;;;;;;;24.52;18.55;;;;;;;1.26;66.03;102742.03;4911405;29;20042;-80
2022/03/01 03:31:56;;;;;;;24.17;19.23;;;;;;;1.18;66.07;102723.41;4911984;29;20369;-80
2022/03/01 03:34:22;;;;;;;24.90;18.70;;;;;;;1.20;66.23;102719.09;4912749;29;20032;-80
2022/03/01 03:36:47;;;;;;;24.35;18.48;;;;;;;1.16;66.32;102720.03;4896203;29;20474;-80
2022/03/01 03:39:13;;;;;;;24.05;18.92;;;;;;;1.12;66.14;102715.81;4912974;29;20028;-79
2022/03/01 03:41:38;;;;;;;24.33;18.23;;;;;;;1.11;66.18;102721.78;4910582;29;20059;-80
2022/03/01 03:44:04;;;;;;;22.13;18.65;;;;;;;1.05;66.40;102728.66;4913235;29;20120;-80
2022/03/01 03:46:30;;;;;;;25.25;19.88;;;;;;;1.10;66.34;102731.16;4911872;29;20035;-80
2022/03/01 03:48:55;;;;;;;23.45;18.92;;;;;;;1.10;66.69;102730.31;4911746;29;20043;-80
2022/03/01 03:51:21;;;;;;;23.75;18.63;;;;;;;1.03;66.76;102726.97;4898110;29;20594;-80
2022/03/01 03:53:47;;;;;;;23.98;18.48;;;;;;;0.98;67.07;102716.81;4877146;29;20458;-81
2022/03/01 03:56:13;;;;;;;23.83;19.02;;;;;;;1.06;66.96;102730.34;4894985;29;20115;-80
2022/03/01 03:58:38;;;;;;;24.15;18.95;;;;;;;1.01;67.07;102724.44;4893119;29;20112;-80
2022/03/01 04:01:04;;;;;;;24.75;18.77;;;;;;;0.96;67.30;102712.56;4899339;29;20469;-80
2022/03/01 04:03:30;;;;;;;24.02;18.67;;;;;;;1.05;66.70;102718.44;4911987;29;20040;-81
2022/03/01 04:05:55;;;;;;;23.13;18.35;;;;;;;1.09;66.97;102728.59;4910938;29;20050;-80
2022/03/01 04:08:20;;;;;;;23.58;18.60;;;;;;;1.12;66.43;102731.13;4907346;29;20482;-80
2022/03/01 04:10:46;;;;;;;23.90;17.85;;;;;;;1.09;66.36;102726.06;4910184;29;20039;-80
2022/03/01 04:13:12;;;;;;;23.75;17.95;;;;;;;1.08;66.33;102722.66;4912511;29;20035;-80
2022/03/01 04:15:37;;;;;;;24.17;18.55;;;;;;;1.10;66.19;102720.09;4904580;29;20761;-80
2022/03/01 04:18:04;;;;;;;21.05;17.80;;;;;;;1.16;65.99;102740.47;4893807;29;20562;-80
2022/03/01 04:20:29;;;;;;;24.70;18.10;;;;;;;1.04;66.45;102711.63;4893425;29;20103;-80
2022/03/01 04:22:55;;;;;;;23.73;18.05;;;;;;;1.15;66.36;102739.63;4893283;29;20172;-80
2022/03/01 04:25:20;;;;;;;22.70;18.05;;;;;;;1.15;66.55;102744.75;4906400;29;20115;-80
2022/03/01 04:27:45;;;;;;;22.88;18.17;;;;;;;1.08;66.34;102721.81;4905771;29;20376;-80
2022/03/01 04:30:12;;;;;;;22.73;17.55;;;;;;;1.18;66.03;102738.72;4893112;29;20020;-80
2022/03/01 04:32:39;;;;;;;24.48;18.50;;;;;;;1.11;66.43;102724.34;4893363;29;20028;-80
2022/03/01 04:35:05;;;;;;;24.23;18.75;;;;;;;1.13;66.04;102735.38;4893525;29;20025;-79
2022/03/01 04:37:31;;;;;;;23.73;18.50;;;;;;;1.11;66.25;102726.91;4891958;29;20071;-80
2022/03/01 04:39:56;;;;;;;29.17;22.08;;;;;;;1.10;66.67;102725.22;4893438;29;20060;-80
2022/03/01 04:42:22;;;;;;;21.58;17.90;;;;;;;1.17;66.36;102737.03;4893283;29;20038;-80
2022/03/01 04:44:47;;;;;;;22.80;17.77;;;;;;;1.19;66.49;102740.41;4911003;29;20034;-80
2022/03/01 04:47:14;;;;;;;23.73;18.35;;;;;;;1.12;66.45;102726.03;4910894;29;20035;-81
2022/03/01 04:49:40;;;;;;;22.13;17.33;;;;;;;1.15;65.70;102728.53;4894846;29;20038;-80
2022/03/01 04:52:06;;;;;;;22.20;18.05;;;;;;;1.22;66.19;102735.28;4896758;29;20024;-80
2022/03/01 04:54:32;;;;;;;22.23;17.75;;;;;;;1.17;65.98;102719.16;4911064;29;20507;-80
2022/03/01 04:56:57;;;;;;;22.73;17.90;;;;;;;1.14;66.18;102721.72;4912154;29;20076;-80
2022/03/01 04:59:26;;;;;;;23.67;18.63;;;;;;;1.14;66.29;102714.06;4894319;29;20453;-80
2022/03/01 05:01:51;;;;;;;23.58;19.60;;;;;;;1.19;65.92;102719.97;4911794;29;20088;-81
2022/03/01 05:04:16;;;;;;;28.15;22.50;;;;;;;1.21;66.08;102718.28;4903680;29;20040;-79
2022/03/01 05:06:42;;;;;;;25.50;19.70;;;;;;;1.19;66.24;102719.97;4908813;29;20035;-80
2022/03/01 05:09:07;;;;;;;23.08;17.52;;;;;;;1.19;66.30;102720.81;4893233;29;20024;-80
2022/03/01 05:11:33;;;;;;;22.20;18.10;;;;;;;1.22;66.20;102722.50;4893767;29;20465;-80
2022/03/01 05:14:00;;;;;;;22.17;18.27;;;;;;;1.12;65.99;102697.91;4911614;29;20028;-80
2022/03/01 05:16:26;;;;;;;23.48;17.85;;;;;;;1.23;66.41;102721.63;4911342;29;20043;-80
2022/03/01 05:18:51;;;;;;;22.35;17.90;;;;;;;1.15;66.13;102706.41;4894968;29;20028;-80
2022/03/01 05:21:16;;;;;;;24.25;18.40;;;;;;;1.15;65.95;102702.97;4903615;29;20432;-80
2022/03/01 05:23:42;;;;;;;23.23;17.85;;;;;;;1.19;66.53;102717.41;4910344;29;20555;-80
2022/03/01 05:26:07;;;;;;;24.05;17.90;;;;;;;1.19;66.27;102704.63;4900926;29;20500;-80
2022/03/01 05:28:32;;;;;;;24.02;18.30;;;;;;;1.12;66.59;102703.88;4911018;29;20036;-80
2022/03/01 05:30:58;;;;;;;24.48;18.33;;;;;;;1.14;66.72;102707.25;4914121;29;20476;-80
2022/03/01 05:33:23;;;;;;;23.60;18.38;;;;;;;0.93;67.06;102672.59;4913982;29;20024;-80
2022/03/01 05:35:49;;;;;;;24.75;19.40;;;;;;;1.02;66.54;102687.78;4913860;29;20387;-79
2022/03/01 05:38:14;;;;;;;23.02;18.83;;;;;;;1.11;67.29;102707.31;4914771;29;20457;-80
2022/03/01 05:40:40;;;;;;;22.50;18.50;;;;;;;1.11;67.54;102711.56;4911623;29;20036;-80
2022/03/01 05:43:07;;;;;;;24.42;18.27;;;;;;;1.11;67.14;102706.47;4896517;29;20031;-80
2022/03/01 05:45:32;;;;;;;24.88;18.33;;;;;;;1.10;67.71;102704.78;4914306;29;20055;-79
2022/03/01 05:47:58;;;;;;;24.13;19.23;;;;;;;1.08;67.58;102706.47;4915935;29;20024;-78
2022/03/01 05:50:25;;;;;;;24.83;18.67;;;;;;;0.90;67.62;102670.06;4914493;29;20085;-80
2022/03/01 05:52:51;;;;;;;23.90;18.98;;;;;;;1.00;67.67;102686.97;4896094;29;20072;-80
2022/03/01 05:55:17;;;;;;;25.05;19.48;;;;;;;0.98;67.71;102691.28;4897111;29;20025;-80
2022/03/01 05:57:42;;;;;;;24.63;19.45;;;;;;;1.00;67.64;102694.66;4896520;29;20024;-80
2022/03/01 06:00:12;;;;;;;25.15;19.73;;;;;;;1.01;67.97;102691.22;4909695;29;20032;-79
2022/03/01 06:02:41;;;;;;;25.05;19.88;;;;;;;0.97;67.87;102689.56;4885345;29;20032;-79
2022/03/01 06:05:07;;;;;;;25.48;18.77;;;;;;;0.94;68.24;102694.72;4895954;29;20032;-81
2022/03/01 06:07:32;;;;;;;24.08;19.73;;;;;;;0.92;68.02;102691.34;4908224;29;20043;-80
2022/03/01 06:09:58;;;;;;;26.35;19.65;;;;;;;0.91;68.27;102694.75;4911329;29;20027;-80
2022/03/01 06:12:23;;;;;;;24.40;19.73;;;;;;;0.93;68.44;102695.59;4905856;29;20035;-81
2022/03/01 06:14:48;;;;;;;25.20;19.45;;;;;;;0.93;68.16;102698.16;4912837;29;20031;-81
2022/03/01 06:17:13;;;;;;;24.95;19.50;;;;;;;0.95;68.32;102700.66;4912827;29;20023;-79
2022/03/01 06:19:39;;;;;;;25.90;20.15;;;;;;;0.93;68.29;102703.25;4911787;29;20547;-79
2022/03/01 06:22:05;;;;;;;25.77;19.88;;;;;;;0.85;68.37;102686.31;4911695;29;20577;-80
2022/03/01 06:24:31;;;;;;;24.25;19.40;;;;;;;0.88;68.31;102689.69;4894211;29;20322;-80
2022/03/01 06:26:58;;;;;;;25.25;20.80;;;;;;;0.90;68.60;102692.22;4911896;29;20479;-80
2022/03/01 06:29:23;;;;;;;27.83;21.42;;;;;;;0.83;68.24;102686.31;4913166;29;20103;-80
2022/03/01 06:31:48;;;;;;;24.65;20.65;;;;;;;0.86;68.31;102691.41;4925473;29;20444;-80
2022/03/01 06:34:13;;;;;;;24.08;19.73;;;;;;;0.81;68.43;102682.13;4914195;29;20461;-80
2022/03/01 06:36:39;;;;;;;25.85;20.48;;;;;;;0.85;68.71;102689.69;4913707;29;20032;-80
2022/03/01 06:39:04;;;;;;;25.02;20.65;;;;;;;0.84;68.59;102697.38;4912238;29;20028;-80
2022/03/01 06:41:29;;;;;;;27.75;20.83;;;;;;;0.89;68.68;102709.25;4910681;29;20381;-79
2022/03/01 06:43:55;;;;;;;24.58;20.95;;;;;;;0.80;68.76;102706.78;4910848;29;20043;-81
2022/03/01 06:46:20;;;;;;;26.95;20.60;;;;;;;0.79;68.71;102712.75;4911003;29;20031;-80
2022/03/01 06:48:46;;;;;;;26.90;20.65;;;;;;;0.82;68.97;102730.63;4894046;29;20032;-80
2022/03/01 06:51:12;;;;;;;26.83;21.67;;;;;;;0.79;69.04;102720.41;4909733;29;20397;-80
2022/03/01 06:53:37;;;;;;;27.10;20.65;;;;;;;0.82;69.01;102725.50;4892356;29;20437;-80
2022/03/01 06:56:03;;;;;;;27.63;20.85;;;;;;;0.87;68.83;102739.09;4909394;29;20020;-80
2022/03/01 06:58:29;;;;;;;27.25;20.45;;;;;;;0.81;68.71;102733.19;4912243;29;20115;-80
2022/03/01 07:00:56;;;;;;;25.65;20.63;;;;;;;0.82;68.84;102733.16;4909980;29;20112;-80
2022/03/01 07:03:21;;;;;;;25.90;21.10;;;;;;;0.77;68.84;102728.09;4912422;29;20035;-80
2022/03/01 07:05:46;;;;;;;26.60;20.75;;;;;;;0.90;68.52;102754.38;4912392;29;20032;-80
2022/03/01 07:08:13;;;;;;;25.92;20.17;;;;;;;0.84;68.20;102734.00;4913090;29;20024;-83
2022/03/01 07:10:38;;;;;;;26.58;20.75;;;;;;;0.87;68.66;102728.03;4908054;29;20036;-79
2022/03/01 07:13:04;;;;;;;24.75;20.50;;;;;;;0.88;68.84;102733.09;4900975;29;20035;-80
2022/03/01 07:15:30;;;;;;;24.70;19.85;;;;;;;0.98;68.74;102744.94;4899482;29;20380;-80
2022/03/01 07:17:55;;;;;;;26.27;20.80;;;;;;;0.90;69.03;102739.03;4912365;29;20048;-80
2022/03/01 07:20:20;;;;;;;25.63;20.52;;;;;;;0.98;68.82;102752.59;4895352;29;20032;-80
2022/03/01 07:22:46;;;;;;;26.42;21.02;;;;;;;0.99;68.64;102754.28;4912362;29;20576;-80
2022/03/01 07:25:14;;;;;;;25.92;21.05;;;;;;;0.97;68.71;102743.22;4911725;29;20044;-80
2022/03/01 07:27:47;;;;;;;;;;;;;;;1.12;68.16;102749.88;4900686;29;20024;-79
2022/03/01 07:30:12;;;;;;;27.83;20.90;;;;;;;0.95;68.76;102736.44;4908496;29;19923;-80
2022/03/01 07:32:37;;;;;;;26.42;21.33;;;;;;;0.97;69.04;102738.09;4908483;29;20032;-80
2022/03/01 07:35:04;;;;;;;27.45;22.00;;;;;;;1.03;69.33;102750.84;4907129;29;20119;-79
2022/03/01 07:37:29;;;;;;;27.75;22.98;;;;;;;1.06;68.93;102755.91;4908737;29;20391;-80
2022/03/01 07:39:55;;;;;;;26.83;21.45;;;;;;;1.04;68.93;102749.97;4909245;29;20036;-79
2022/03/01 07:42:21;;;;;;;29.08;21.80;;;;;;;1.01;69.15;102755.09;4912506;29;20027;-79
2022/03/01 07:44:46;;;;;;;26.08;21.00;;;;;;;1.09;69.37;102751.59;4911340;29;20028;-79
2022/03/01 07:47:11;;;;;;;27.08;21.63;;;;;;;1.12;69.24;102754.97;4907592;29;20042;-80
2022/03/01 07:49:37;;;;;;;24.40;20.92;;;;;;;1.12;69.52;102764.34;4911705;29;20589;-80
2022/03/01 07:52:02;;;;;;;26.58;21.58;;;;;;;1.18;69.62;102769.41;4912005;29;20031;-80
2022/03/01 07:54:28;;;;;;;27.58;20.83;;;;;;;1.17;69.53;102760.91;4912683;29;20024;-80
2022/03/01 07:56:53;;;;;;;25.10;20.75;;;;;;;1.18;69.66;102748.97;4901094;29;20056;-79
2022/03/01 07:59:18;;;;;;;26.13;21.05;;;;;;;1.25;70.18;102750.56;4912419;29;20401;-80
2022/03/01 08:01:44;;;;;;;25.23;20.52;;;;;;;1.18;70.14;102738.72;4912236;29;20036;-80
2022/03/01 08:04:09;;;;;;;25.08;21.17;;;;;;;1.20;69.83;102742.09;4909289;29;20076;-80
2022/03/01 08:06:34;;;;;;;27.95;21.52;;;;;;;1.27;69.40;102756.53;4912137;29;20465;-79
2022/03/01 08:09:00;;;;;;;26.17;21.52;;;;;;;1.30;69.46;102759.03;4912715;29;20476;-80
2022/03/01 08:11:25;;;;;;;26.08;21.17;;;;;;;1.31;69.87;102756.44;4898149;29;20088;-79
2022/03/01 08:13:50;;;;;;;25.85;21.40;;;;;;;1.38;69.58;102762.38;4893713;29;20500;-79
2022/03/01 08:16:16;;;;;;;26.00;20.67;;;;;;;1.35;69.58;102757.28;4884764;29;20083;-79
2022/03/01 08:18:42;;;;;;;25.88;20.23;;;;;;;1.44;69.91;102764.84;4912384;29;20743;-79
2022/03/01 08:21:07;;;;;;;26.58;20.25;;;;;;;1.46;70.46;102770.78;4895001;29;20036;-79
2022/03/01 08:23:33;;;;;;;28.33;21.05;;;;;;;1.52;69.92;102775.81;4911933;29;20083;-80
2022/03/01 08:25:58;;;;;;;29.55;22.52;;;;;;;1.56;69.79;102787.69;4912380;29;20373;-80
2022/03/01 08:28:25;;;;;;;26.70;21.05;;;;;;;1.53;69.89;102767.25;4904559;29;20407;-81
2022/03/01 08:30:52;;;;;;;25.83;20.13;;;;;;;1.58;69.59;102759.53;4893505;29;20035;-80
2022/03/01 08:33:18;;;;;;;25.83;20.63;;;;;;;1.59;69.59;102766.34;4893253;29;20390;-81
2022/03/01 08:35:44;;;;;;;26.25;20.85;;;;;;;1.72;70.05;102783.25;4893384;29;20028;-80
2022/03/01 08:38:09;;;;;;;26.17;21.20;;;;;;;1.76;69.40;102776.34;4893382;29;20029;-80
2022/03/01 08:40:40;;;;;;;26.13;21.15;;;;;;;1.73;69.15;102769.56;4895427;29;20047;-80
2022/03/01 08:43:08;;;;;;;28.33;20.48;;;;;;;1.88;69.20;102783.84;4896064;29;20036;-80
2022/03/01 08:45:33;;;;;;;26.38;20.55;;;;;;;1.88;69.62;102767.66;4911767;29;20078;-80
2022/03/01 08:47:59;;;;;;;27.00;20.42;;;;;;;1.94;69.83;102773.53;4909543;29;20060;-80
2022/03/01 08:50:25;;;;;;;27.42;20.88;;;;;;;2.04;70.16;102790.44;4875908;29;20544;-80
2022/03/01 08:52:50;;;;;;;26.50;20.88;;;;;;;2.01;69.39;102782.00;4893402;29;20025;-80
2022/03/01 08:55:16;;;;;;;27.65;20.63;;;;;;;2.07;69.32;102785.31;4897057;29;20055;-80
2022/03/01 08:57:42;;;;;;;25.73;20.40;;;;;;;2.12;69.29;102788.66;4896357;29;20031;-80
2022/03/01 09:00:10;;;;;;;27.23;20.65;;;;;;;2.26;69.49;102797.81;4897020;29;20083;-80
2022/03/01 09:02:35;;;;;;;24.83;20.30;;;;;;;2.26;69.13;102779.91;4896459;29;20040;-80
2022/03/01 09:05:01;;;;;;;24.10;18.95;;;;;;;2.26;68.82;102779.91;4897572;29;20028;-80
2022/03/01 09:07:26;;;;;;;27.30;20.75;;;;;;;2.36;68.77;102791.69;4915508;29;20111;-80
2022/03/01 09:09:52;;;;;;;25.77;19.85;;;;;;;2.39;68.87;102791.63;4914778;29;20574;-80
2022/03/01 09:12:18;;;;;;;25.73;19.65;;;;;;;2.50;68.75;102804.28;4914533;29;20044;-81
2022/03/01 09:14:43;;;;;;;24.95;19.90;;;;;;;2.51;68.98;102799.13;4916037;29;20027;-80
2022/03/01 09:17:09;;;;;;;25.50;20.77;;;;;;;2.60;69.08;102805.81;4915146;29;20055;-80
2022/03/01 09:19:34;;;;;;;24.15;19.20;;;;;;;2.64;68.96;102803.19;4898116;29;20362;-82
2022/03/01 09:22:00;;;;;;;25.02;20.45;;;;;;;2.67;69.09;102802.28;4900727;29;20044;-80
2022/03/01 09:24:25;;;;;;;26.65;19.63;;;;;;;2.67;69.15;102787.75;4908468;29;20084;-80
2022/03/01 09:26:50;;;;;;;26.25;20.60;;;;;;;2.82;69.13;102802.03;4918009;29;20385;-80
2022/03/01 09:29:16;;;;;;;29.48;20.15;;;;;;;2.79;68.92;102790.97;4902626;29;20462;-80
2022/03/01 09:31:41;;;;;;;26.77;18.52;;;;;;;2.96;68.88;102809.47;4896136;29;20108;-80
2022/03/01 09:34:06;;;;;;;25.58;19.80;;;;;;;2.96;68.06;102794.06;4896787;29;20466;-80
2022/03/01 09:36:32;;;;;;;24.95;18.73;;;;;;;3.03;68.12;102800.78;4908288;29;20040;-80
2022/03/01 09:38:58;;;;;;;27.75;19.85;;;;;;;3.11;68.33;102806.63;4907848;29;20072;-80
2022/03/01 09:41:23;;;;;;;24.30;19.13;;;;;;;3.15;68.49;102804.81;4896934;29;20073;-80
2022/03/01 09:43:51;;;;;;;25.30;19.33;;;;;;;3.27;68.39;102808.88;4896136;29;20064;-80
2022/03/01 09:46:16;;;;;;;25.88;19.35;;;;;;;3.29;68.37;102802.03;4906355;29;20040;-80
2022/03/01 09:48:42;;;;;;;27.95;19.80;;;;;;;3.41;68.10;102801.78;4897531;29;20119;-80
2022/03/01 09:51:08;;;;;;;24.48;19.52;;;;;;;3.49;68.16;102802.44;4914686;29;20028;-80
2022/03/01 09:53:35;;;;;;;25.80;19.02;;;;;;;3.56;67.39;102816.03;4914661;29;20032;-80
2022/03/01 09:56:02;;;;;;;24.85;19.52;;;;;;;3.59;67.19;102806.53;4904672;29;20029;-80
2022/03/01 09:58:28;;;;;;;23.88;18.83;;;;;;;3.69;67.41;102802.06;4899027;29;20562;-80
2022/03/01 10:00:53;;;;;;;26.35;18.98;;;;;;;3.76;67.13;102800.19;4914287;29;20031;-81
2022/03/01 10:03:20;;;;;;;23.50;18.85;;;;;;;3.80;66.51;102799.25;4887391;29;20040;-81
2022/03/01 10:05:46;;;;;;;25.45;19.15;;;;;;;3.78;66.58;102785.59;4897931;29;20034;-81
2022/03/01 10:08:20;;;;;;;25.10;19.33;;;;;;;3.89;66.64;102804.19;4897193;29;20116;-80
2022/03/01 10:10:51;;;;;;;24.10;18.52;;;;;;;3.96;66.13;102814.31;4903464;29;20040;-80
2022/03/01 10:13:23;;;;;;;26.73;19.30;;;;;;;4.01;66.63;102809.03;4914823;29;20027;-80
2022/03/01 10:16:12;;;;;;;25.02;19.83;;;;;;;4.02;66.84;102789.38;4914481;29;20034;-80
2022/03/01 10:18:52;;;;;;;23.88;18.65;;;;;;;4.14;66.25;102809.63;4913773;29;20516;-80
2022/03/01 10:21:19;;;;;;;22.48;18.17;;;;;;;4.20;66.57;102815.47;4897089;29;20407;-80
2022/03/01 10:23:48;;;;;;;26.13;19.33;;;;;;;4.21;66.48;102811.19;4914122;29;20056;-80
2022/03/01 10:26:20;;;;;;;;;;;;;;;4.34;66.87;102822.00;4897958;29;20503;-80
2022/03/01 10:28:47;;;;;;;25.17;18.88;;;;;;;4.39;65.76;102815.03;4904818;29;19984;-80
2022/03/01 10:31:15;;;;;;;23.17;19.42;;;;;;;4.38;66.49;102792.78;4895644;29;20024;-80
2022/03/01 10:34:03;;;;;;;25.48;19.17;;;;;;;4.56;66.01;102797.47;4894969;29;20040;-80
2022/03/01 10:36:30;;;;;;;20.58;17.38;;;;;;;4.64;65.43;102800.69;4895234;29;20028;-80
2022/03/01 10:38:59;;;;;;;23.45;18.50;;;;;;;4.71;65.64;102804.81;4895200;29;20037;-80
2022/03/01 10:41:27;;;;;;;24.48;18.25;;;;;;;4.71;64.51;102791.13;4894873;29;20025;-80
2022/03/01 10:43:59;;;;;;;24.30;18.45;;;;;;;4.84;64.64;102801.94;4908879;29;20046;-80
2022/03/01 10:46:29;;;;;;;21.70;17.08;;;;;;;4.92;62.13;102798.25;4894581;29;20025;-80
2022/03/01 10:49:01;;;;;;;20.45;16.73;;;;;;;4.95;61.37;102795.63;4894271;29;20039;-80
2022/03/01 10:51:27;;;;;;;21.40;15.73;;;;;;;5.02;60.84;102796.28;4913204;29;20039;-80
2022/03/01 10:53:52;;;;;;;22.38;16.85;;;;;;;5.07;60.34;102786.72;4913934;29;20036;-80
2022/03/01 10:56:17;;;;;;;20.20;16.20;;;;;;;5.21;59.61;102796.63;4913220;29;20024;-80
2022/03/01 10:58:44;;;;;;;20.70;16.65;;;;;;;5.26;59.46;102799.94;4898875;29;20404;-80
2022/03/01 11:01:10;;;;;;;23.65;16.65;;;;;;;5.33;59.52;102807.47;4902857;29;20036;-80
2022/03/01 11:03:36;;;;;;;20.75;15.35;;;;;;;5.38;59.67;102814.19;4912150;29;20074;-80
2022/03/01 11:06:03;;;;;;;20.77;16.45;;;;;;;5.41;60.19;102806.38;4894701;29;20037;-80
2022/03/01 11:08:35;;;;;;;20.85;15.95;;;;;;;5.42;59.57;102802.94;4889632;29;20098;-81
2022/03/01 11:11:04;;;;;;;21.50;16.70;;;;;;;5.44;58.95;102791.69;4905006;29;20037;-80